createdAt,value
2023-02-26T00:01:12.911Z,1.10
2023-02-26T00:03:41.339Z,1.40
2023-02-26T00:06:09.963Z,1.50
2023-02-26T00:08:38.111Z,1.50
2023-02-26T00:11:08.795Z,1.27
2023-02-26T00:13:38.081Z,1.40
2023-02-26T00:16:15.401Z,1.40
2023-02-26T00:18:43.978Z,1.50
2023-02-26T00:21:17.710Z,1.40
2023-02-26T00:23:46.173Z,1.80
2023-02-26T00:26:14.312Z,1.27
2023-02-26T00:28:43.320Z,1.20
2023-02-26T00:31:15.724Z,1.40
2023-02-26T00:33:45.397Z,1.00
2023-02-26T00:36:22.215Z,1.30
2023-02-26T00:39:03.807Z,1.20
2023-02-26T00:41:32.362Z,1.37
2023-02-26T00:44:00.890Z,1.10
2023-02-26T00:46:39.871Z,1.00
2023-02-26T00:49:18.844Z,1.10
2023-02-26T00:51:50.485Z,1.00
2023-02-26T00:54:22.004Z,1.20
2023-02-26T00:56:53.082Z,1.00
2023-02-26T00:59:21.566Z,1.03
2023-02-26T01:01:52.207Z,1.10
2023-02-26T01:04:23.055Z,0.90
2023-02-26T01:06:54.643Z,1.10
2023-02-26T01:09:26.797Z,1.33
2023-02-26T01:11:56.313Z,1.00
2023-02-26T01:14:25.598Z,1.20
2023-02-26T01:17:03.615Z,1.10
2023-02-26T01:19:40.427Z,1.00
2023-02-26T01:22:14.288Z,1.07
2023-02-26T01:24:43.087Z,1.00
2023-02-26T01:27:11.445Z,1.07
2023-02-26T01:29:39.797Z,1.00
2023-02-26T01:32:16.680Z,1.23
2023-02-26T01:34:52.456Z,0.90
2023-02-26T01:37:30.262Z,1.10
2023-02-26T01:40:30.741Z,1.00
2023-02-26T01:43:07.717Z,1.17
2023-02-26T01:45:40.451Z,1.07
2023-02-26T01:48:19.424Z,1.10
2023-02-26T01:50:47.723Z,1.00
2023-02-26T01:53:22.209Z,1.10
2023-02-26T01:55:55.165Z,1.10
2023-02-26T01:58:24.667Z,1.00
2023-02-26T02:00:53.119Z,1.30
2023-02-26T02:03:23.651Z,0.90
2023-02-26T02:05:55.182Z,0.87
2023-02-26T02:08:23.740Z,1.20
2023-02-26T02:10:53.368Z,1.37
2023-02-26T02:13:36.364Z,0.80
2023-02-26T02:16:13.366Z,1.10
2023-02-26T02:18:53.454Z,1.20
2023-02-26T02:21:49.512Z,1.60
2023-02-26T02:24:25.337Z,1.33
2023-02-26T02:27:10.172Z,1.20
2023-02-26T02:30:16.652Z,1.20
2023-02-26T02:32:50.711Z,1.10
2023-02-26T02:35:22.665Z,1.13
2023-02-26T02:37:59.548Z,1.37
2023-02-26T02:40:31.687Z,1.20
2023-02-26T02:43:03.158Z,1.20
2023-02-26T02:45:36.733Z,1.23
2023-02-26T02:48:11.844Z,1.10
2023-02-26T02:50:44.414Z,1.23
2023-02-26T02:53:18.160Z,1.20
2023-02-26T02:55:52.109Z,1.30
2023-02-26T02:58:26.096Z,1.30
2023-02-26T03:00:58.684Z,1.10
2023-02-26T03:03:34.434Z,1.20
2023-02-26T03:06:04.185Z,1.17
2023-02-26T03:08:37.422Z,1.00
2023-02-26T03:11:06.094Z,1.23
2023-02-26T03:13:35.464Z,1.17
2023-02-26T03:16:30.710Z,1.10
2023-02-26T03:19:06.712Z,1.33
2023-02-26T03:21:43.339Z,1.00
2023-02-26T03:24:18.118Z,1.37
2023-02-26T03:26:49.264Z,1.10
2023-02-26T03:29:28.698Z,1.17
2023-02-26T03:32:00.414Z,0.90
2023-02-26T03:34:36.348Z,1.00
2023-02-26T03:37:09.608Z,1.80
2023-02-26T03:39:41.390Z,1.10
2023-02-26T03:42:15.208Z,1.07
2023-02-26T03:44:56.933Z,1.10
2023-02-26T03:47:26.302Z,1.10
2023-02-26T03:50:03.871Z,1.20
2023-02-26T03:52:39.391Z,1.37
2023-02-26T03:55:22.833Z,1.40
2023-02-26T03:58:10.147Z,1.00
2023-02-26T04:01:20.030Z,1.00
2023-02-26T04:03:54.193Z,1.23
2023-02-26T04:06:24.745Z,1.07
2023-02-26T04:08:53.569Z,1.37
2023-02-26T04:11:23.089Z,1.37
2023-02-26T04:13:51.671Z,1.30
2023-02-26T04:16:20.511Z,1.10
2023-02-26T04:18:48.670Z,1.10
2023-02-26T04:21:20.335Z,1.20
2023-02-26T04:23:50.385Z,1.27
2023-02-26T04:26:18.539Z,1.13
2023-02-26T04:28:47.479Z,1.27
2023-02-26T04:31:16.132Z,1.23
2023-02-26T04:33:44.901Z,0.90
2023-02-26T04:36:13.254Z,1.07
2023-02-26T04:38:41.869Z,1.20
2023-02-26T04:41:11.349Z,1.20
2023-02-26T04:43:39.677Z,0.93
2023-02-26T04:46:21.122Z,1.00
2023-02-26T04:48:49.300Z,1.10
2023-02-26T04:51:18.092Z,1.20
2023-02-26T04:53:47.632Z,1.13
2023-02-26T04:56:17.187Z,0.90
2023-02-26T04:58:46.365Z,1.13
2023-02-26T05:01:19.443Z,1.10
2023-02-26T05:03:47.540Z,1.13
2023-02-26T05:06:15.822Z,1.40
2023-02-26T05:08:44.007Z,1.10
2023-02-26T05:11:13.018Z,1.37
2023-02-26T05:13:42.452Z,1.03
2023-02-26T05:16:10.555Z,1.03
2023-02-26T05:18:38.785Z,1.33
2023-02-26T05:21:07.261Z,1.10
2023-02-26T05:23:35.437Z,1.07
2023-02-26T05:26:03.559Z,1.60
2023-02-26T05:28:31.690Z,1.00
2023-02-26T05:31:01.515Z,0.97
2023-02-26T05:33:29.648Z,1.23
2023-02-26T05:35:57.915Z,1.00
2023-02-26T05:38:26.026Z,1.20
2023-02-26T05:40:58.028Z,1.27
2023-02-26T05:43:26.604Z,0.93
2023-02-26T05:45:55.504Z,1.30
2023-02-26T05:48:25.288Z,1.20
2023-02-26T05:50:53.941Z,1.07
2023-02-26T05:53:22.156Z,0.93
2023-02-26T05:55:50.444Z,1.20
2023-02-26T05:58:18.517Z,1.20
2023-02-26T06:00:46.918Z,1.10
2023-02-26T06:03:15.246Z,1.30
2023-02-26T06:05:44.619Z,1.10
2023-02-26T06:08:15.566Z,1.17
2023-02-26T06:10:44.670Z,1.07
2023-02-26T06:13:12.792Z,1.20
2023-02-26T06:15:40.852Z,1.10
2023-02-26T06:18:09.416Z,1.40
2023-02-26T06:20:37.628Z,1.47
2023-02-26T06:23:07.090Z,1.13
2023-02-26T06:25:35.147Z,1.30
2023-02-26T06:28:03.250Z,1.23
2023-02-26T06:30:31.716Z,1.00
2023-02-26T06:32:59.816Z,1.13
2023-02-26T06:35:28.490Z,1.30
2023-02-26T06:37:56.581Z,1.20
2023-02-26T06:40:26.098Z,1.10
2023-02-26T06:42:54.178Z,1.00
2023-02-26T06:45:22.212Z,1.17
2023-02-26T06:47:50.244Z,0.90
2023-02-26T06:50:18.844Z,1.20
2023-02-26T06:52:46.876Z,1.40
2023-02-26T06:55:15.043Z,1.10
2023-02-26T06:57:44.486Z,1.50
2023-02-26T07:00:13.461Z,0.87
2023-02-26T07:02:41.581Z,1.20
2023-02-26T07:05:10.591Z,1.00
2023-02-26T07:07:38.691Z,1.20
2023-02-26T07:10:07.923Z,1.00
2023-02-26T07:12:35.919Z,1.40
2023-02-26T07:15:06.513Z,1.10
2023-02-26T07:17:34.663Z,1.07
2023-02-26T07:20:06.304Z,1.27
2023-02-26T07:22:34.602Z,1.10
2023-02-26T07:25:02.620Z,1.00
2023-02-26T07:27:30.936Z,0.90
2023-02-26T07:29:59.113Z,1.00
2023-02-26T07:32:28.618Z,0.90
2023-02-26T07:34:56.945Z,1.20
2023-02-26T07:37:25.304Z,1.00
2023-02-26T07:39:53.746Z,1.03
2023-02-26T07:42:22.306Z,1.20
2023-02-26T07:44:50.673Z,1.33
2023-02-26T07:47:18.972Z,1.03
2023-02-26T07:49:48.363Z,1.07
2023-02-26T07:52:17.104Z,1.37
2023-02-26T07:54:45.205Z,1.20
2023-02-26T07:57:13.204Z,1.00
2023-02-26T07:59:41.325Z,1.20
2023-02-26T08:02:09.370Z,1.27
2023-02-26T08:04:37.429Z,1.33
2023-02-26T08:07:07.442Z,1.03
2023-02-26T08:09:35.501Z,1.50
2023-02-26T08:12:05.773Z,1.20
2023-02-26T08:14:34.017Z,1.10
2023-02-26T08:17:02.097Z,1.40
2023-02-26T08:19:30.167Z,1.30
2023-02-26T08:21:58.224Z,1.30
2023-02-26T08:24:27.706Z,1.43
2023-02-26T08:26:56.734Z,1.20
2023-02-26T08:29:25.242Z,1.40
2023-02-26T08:31:53.639Z,1.47
2023-02-26T08:34:27.394Z,1.50
2023-02-26T08:36:57.250Z,1.00
2023-02-26T08:39:25.304Z,1.37
2023-02-26T08:41:54.704Z,1.20
2023-02-26T08:44:22.749Z,1.47
2023-02-26T08:46:50.894Z,1.50
2023-02-26T08:49:18.923Z,1.27
2023-02-26T08:51:46.962Z,1.60
2023-02-26T08:54:15.189Z,1.53
2023-02-26T08:56:43.315Z,1.43
2023-02-26T08:59:13.525Z,1.57
2023-02-26T09:01:41.663Z,1.50
2023-02-26T09:04:09.753Z,1.30
2023-02-26T09:06:37.994Z,1.10
2023-02-26T09:09:06.153Z,1.50
2023-02-26T09:11:37.387Z,1.30
2023-02-26T09:14:08.536Z,1.30
2023-02-26T09:16:40.482Z,1.17
2023-02-26T09:19:11.712Z,1.20
2023-02-26T09:21:42.280Z,1.30
2023-02-26T09:24:12.709Z,1.43
2023-02-26T09:26:43.413Z,1.00
2023-02-26T09:29:13.954Z,0.93
2023-02-26T09:31:48.843Z,0.80
2023-02-26T09:34:21.178Z,1.00
2023-02-26T09:36:49.642Z,1.33
2023-02-26T09:39:17.729Z,1.00
2023-02-26T09:41:51.005Z,0.70
2023-02-26T09:44:22.648Z,0.90
2023-02-26T09:46:59.457Z,0.77
2023-02-26T09:49:37.879Z,0.77
2023-02-26T09:52:14.045Z,1.03
2023-02-26T09:54:46.173Z,1.00
2023-02-26T09:57:26.519Z,0.97
2023-02-26T09:59:54.981Z,1.07
2023-02-26T10:02:34.673Z,1.37
2023-02-26T10:05:18.488Z,0.90
2023-02-26T10:07:51.501Z,1.10
2023-02-26T10:10:27.432Z,1.17
2023-02-26T10:12:55.794Z,1.13
2023-02-26T10:15:27.073Z,0.63
2023-02-26T10:18:17.707Z,0.80
2023-02-26T10:20:55.363Z,1.00
2023-02-26T10:23:27.971Z,1.37
2023-02-26T10:26:03.124Z,0.60
2023-02-26T10:28:46.715Z,0.80
2023-02-26T10:31:23.414Z,0.73
2023-02-26T10:34:09.078Z,0.90
2023-02-26T10:36:45.642Z,0.80
2023-02-26T10:39:25.308Z,1.00
2023-02-26T10:41:53.954Z,0.80
2023-02-26T10:44:31.305Z,0.87
2023-02-26T10:47:06.509Z,1.00
2023-02-26T10:49:54.746Z,0.90
2023-02-26T10:52:27.582Z,0.67
2023-02-26T10:55:07.953Z,0.77
2023-02-26T10:57:39.965Z,0.70
2023-02-26T11:00:15.892Z,0.83
2023-02-26T11:02:47.201Z,0.60
2023-02-26T11:05:19.684Z,0.70
2023-02-26T11:07:51.991Z,1.13
2023-02-26T11:10:24.160Z,0.80
2023-02-26T11:12:52.988Z,1.13
2023-02-26T11:15:23.087Z,1.10
2023-02-26T11:17:56.128Z,1.10
2023-02-26T11:20:32.282Z,1.27
2023-02-26T11:23:02.125Z,0.80
2023-02-26T11:25:35.849Z,1.13
2023-02-26T11:28:06.407Z,1.40
2023-02-26T11:30:39.711Z,1.00
2023-02-26T11:33:28.972Z,1.10
2023-02-26T11:36:03.620Z,1.10
2023-02-26T11:38:33.545Z,1.13
2023-02-26T11:41:03.143Z,1.03
2023-02-26T11:43:38.239Z,1.00
2023-02-26T11:46:07.097Z,0.90
2023-02-26T11:48:41.789Z,1.00
2023-02-26T11:51:16.785Z,0.70
2023-02-26T11:53:50.956Z,0.87
2023-02-26T11:56:27.818Z,0.90
2023-02-26T11:58:56.761Z,0.60
2023-02-26T12:01:30.632Z,0.87
2023-02-26T12:04:09.639Z,0.70
2023-02-26T12:06:39.599Z,0.87
2023-02-26T12:09:13.043Z,0.63
2023-02-26T12:12:07.535Z,0.70
2023-02-26T12:15:04.474Z,0.70
2023-02-26T12:17:43.769Z,0.70
2023-02-26T12:20:21.429Z,0.63
2023-02-26T12:23:07.466Z,0.70
2023-02-26T12:25:50.812Z,0.80
2023-02-26T12:28:41.487Z,0.93
2023-02-26T12:31:45.314Z,0.80
2023-02-26T12:34:29.767Z,1.07
2023-02-26T12:37:14.955Z,1.00
2023-02-26T12:39:56.786Z,0.70
2023-02-26T12:42:38.263Z,1.17
2023-02-26T12:45:25.401Z,0.80
2023-02-26T12:48:08.619Z,0.93
2023-02-26T12:50:45.424Z,1.33
2023-02-26T12:53:33.409Z,0.83
2023-02-26T12:56:28.162Z,1.10
2023-02-26T12:59:07.009Z,0.80
2023-02-26T13:02:01.360Z,1.20
2023-02-26T13:04:57.603Z,1.10
2023-02-26T13:08:04.262Z,0.80
2023-02-26T13:10:45.154Z,1.20
2023-02-26T13:13:28.895Z,0.80
2023-02-26T13:16:11.184Z,1.00
2023-02-26T13:18:49.959Z,1.17
2023-02-26T13:21:22.285Z,1.03
2023-02-26T13:23:53.362Z,0.90
2023-02-26T13:26:23.108Z,0.90
2023-02-26T13:28:57.378Z,1.10
2023-02-26T13:31:30.176Z,1.10
2023-02-26T13:34:02.454Z,0.90
2023-02-26T13:36:31.847Z,1.07
2023-02-26T13:39:30.112Z,1.10
2023-02-26T13:42:03.417Z,0.90
2023-02-26T13:44:48.530Z,0.83
2023-02-26T13:47:32.673Z,1.07
2023-02-26T13:50:16.932Z,0.87
2023-02-26T13:52:53.861Z,1.07
2023-02-26T13:55:43.012Z,0.90
2023-02-26T13:58:34.741Z,1.13
2023-02-26T14:01:10.959Z,0.90
2023-02-26T14:03:46.482Z,0.90
2023-02-26T14:06:27.530Z,1.20
2023-02-26T14:08:57.420Z,1.30
2023-02-26T14:11:43.427Z,1.30
2023-02-26T14:14:25.150Z,1.20
2023-02-26T14:17:29.454Z,0.90
2023-02-26T14:20:26.590Z,1.17
2023-02-26T14:23:12.453Z,0.93
2023-02-26T14:25:42.439Z,1.10
2023-02-26T14:28:31.269Z,0.93
2023-02-26T14:31:12.580Z,1.00
2023-02-26T14:33:46.178Z,1.17
2023-02-26T14:36:21.051Z,1.03
2023-02-26T14:38:51.565Z,1.00
2023-02-26T14:41:29.979Z,0.83
2023-02-26T14:44:03.876Z,1.30
2023-02-26T14:46:32.167Z,0.83
2023-02-26T14:49:01.701Z,1.10
2023-02-26T14:51:40.396Z,1.00
2023-02-26T14:54:31.321Z,0.90
2023-02-26T14:57:04.565Z,1.00
2023-02-26T14:59:50.030Z,0.90
2023-02-26T15:02:27.758Z,1.80
2023-02-26T15:05:19.456Z,0.90
2023-02-26T15:08:09.928Z,1.00
2023-02-26T15:10:51.172Z,0.77
2023-02-26T15:13:42.205Z,0.97
2023-02-26T15:16:24.178Z,0.97
2023-02-26T15:19:06.700Z,0.80
2023-02-26T15:21:46.288Z,1.07
2023-02-26T15:24:15.900Z,0.90
2023-02-26T15:26:48.888Z,1.03
2023-02-26T15:29:17.780Z,1.00
2023-02-26T15:31:52.064Z,0.90
2023-02-26T15:34:21.931Z,0.93
2023-02-26T15:36:54.194Z,0.90
2023-02-26T15:39:25.116Z,1.10
2023-02-26T15:41:55.739Z,1.03
2023-02-26T15:44:26.843Z,1.37
2023-02-26T15:46:57.745Z,1.00
2023-02-26T15:49:30.469Z,1.20
2023-02-26T15:52:01.479Z,0.90
2023-02-26T15:54:38.646Z,1.40
2023-02-26T15:57:08.629Z,0.83
2023-02-26T15:59:42.216Z,0.90
2023-02-26T16:02:13.699Z,1.00
2023-02-26T16:04:42.803Z,0.80
2023-02-26T16:07:14.034Z,0.90
2023-02-26T16:09:45.942Z,0.97
2023-02-26T16:12:17.862Z,0.80
2023-02-26T16:14:49.921Z,0.80
2023-02-26T16:17:24.936Z,0.90
2023-02-26T16:19:54.474Z,0.90
2023-02-26T16:22:27.947Z,0.73
2023-02-26T16:25:00.546Z,0.60
2023-02-26T16:27:29.957Z,0.90
2023-02-26T16:30:00.510Z,1.17
2023-02-26T16:32:32.957Z,1.13
2023-02-26T16:35:09.258Z,1.20
2023-02-26T16:37:38.798Z,1.23
2023-02-26T16:40:18.867Z,0.90
2023-02-26T16:42:54.449Z,1.17
2023-02-26T16:45:43.005Z,1.03
2023-02-26T16:48:16.641Z,1.00
2023-02-26T16:50:44.994Z,1.37
2023-02-26T16:53:19.282Z,1.00
2023-02-26T16:55:52.502Z,1.17
2023-02-26T16:58:21.945Z,0.93
2023-02-26T17:00:58.066Z,1.10
2023-02-26T17:03:27.624Z,1.00
2023-02-26T17:06:00.459Z,1.13
2023-02-26T17:08:34.475Z,1.00
2023-02-26T17:11:04.937Z,1.10
2023-02-26T17:13:34.669Z,1.20
2023-02-26T17:16:04.862Z,1.20
2023-02-26T17:18:33.353Z,1.20
2023-02-26T17:21:04.231Z,1.20
2023-02-26T17:23:38.932Z,1.30
2023-02-26T17:26:07.364Z,1.10
2023-02-26T17:28:39.772Z,1.40
2023-02-26T17:31:08.255Z,1.33
2023-02-26T17:33:37.706Z,1.30
2023-02-26T17:36:07.401Z,1.27
2023-02-26T17:38:36.878Z,1.30
2023-02-26T17:41:05.129Z,1.00
2023-02-26T17:43:33.474Z,1.60
2023-02-26T17:46:01.813Z,1.10
2023-02-26T17:48:30.937Z,1.40
2023-02-26T17:50:59.454Z,1.40
2023-02-26T17:53:29.466Z,1.10
2023-02-26T17:55:59.988Z,1.23
2023-02-26T17:58:29.835Z,1.20
2023-02-26T18:00:58.192Z,1.40
2023-02-26T18:03:26.697Z,1.27
2023-02-26T18:05:56.467Z,1.30
2023-02-26T18:08:26.180Z,1.20
2023-02-26T18:10:54.847Z,1.20
2023-02-26T18:13:25.019Z,1.67
2023-02-26T18:15:55.037Z,1.57
2023-02-26T18:18:24.555Z,1.40
2023-02-26T18:20:53.003Z,1.17
2023-02-26T18:23:21.470Z,0.93
2023-02-26T18:25:51.582Z,1.50
2023-02-26T18:28:22.435Z,1.77
2023-02-26T18:30:52.640Z,1.77
2023-02-26T18:33:21.786Z,1.73
2023-02-26T18:35:53.338Z,1.70
2023-02-26T18:38:23.412Z,1.70
2023-02-26T18:40:52.251Z,1.83
2023-02-26T18:43:20.453Z,1.50
2023-02-26T18:45:52.196Z,1.43
2023-02-26T18:48:21.910Z,1.50
2023-02-26T18:50:50.570Z,1.80
2023-02-26T18:53:23.164Z,1.80
2023-02-26T18:55:52.751Z,1.43
2023-02-26T18:58:21.169Z,1.70
2023-02-26T19:00:49.457Z,2.00
2023-02-26T19:03:19.065Z,1.80
2023-02-26T19:05:47.290Z,1.97
2023-02-26T19:08:15.661Z,1.87
2023-02-26T19:10:43.690Z,2.30
2023-02-26T19:13:11.698Z,2.23
2023-02-26T19:15:39.786Z,1.73
2023-02-26T19:18:08.389Z,2.30
2023-02-26T19:20:37.872Z,2.57
2023-02-26T19:23:06.772Z,1.90
2023-02-26T19:25:34.824Z,3.20
2023-02-26T19:28:03.392Z,4.10
2023-02-26T19:30:31.733Z,4.90
2023-02-26T19:32:59.935Z,3.97
2023-02-26T19:35:29.593Z,4.90
2023-02-26T19:37:58.997Z,3.10
2023-02-26T19:40:28.163Z,3.97
2023-02-26T19:42:56.231Z,3.00
2023-02-26T19:45:24.367Z,2.43
2023-02-26T19:47:52.389Z,2.90
2023-02-26T19:50:22.423Z,2.80
2023-02-26T19:52:50.465Z,2.40
2023-02-26T19:55:19.884Z,2.97
2023-02-26T19:57:49.243Z,2.90
2023-02-26T20:00:17.940Z,3.30
2023-02-26T20:02:46.216Z,4.20
2023-02-26T20:05:17.025Z,10.80
2023-02-26T20:07:46.419Z,14.63
2023-02-26T20:10:15.915Z,20.30
2023-02-26T20:12:46.411Z,12.73
2023-02-26T20:15:15.034Z,10.43
2023-02-26T20:17:43.634Z,13.27
2023-02-26T20:20:12.739Z,15.30
2023-02-26T20:22:40.809Z,15.50
2023-02-26T20:25:10.052Z,12.60
2023-02-26T20:27:38.321Z,12.03
2023-02-26T20:30:09.649Z,11.50
2023-02-26T20:32:37.870Z,9.57
2023-02-26T20:35:07.123Z,8.33
2023-02-26T20:37:35.148Z,7.47
2023-02-26T20:40:04.858Z,8.80
2023-02-26T20:42:33.486Z,7.87
2023-02-26T20:45:01.633Z,6.17
2023-02-26T20:47:31.755Z,6.90
2023-02-26T20:49:59.866Z,7.87
2023-02-26T20:52:27.915Z,8.07
2023-02-26T20:54:55.995Z,8.33
2023-02-26T20:57:24.103Z,7.90
2023-02-26T20:59:52.189Z,8.23
2023-02-26T21:02:21.399Z,9.23
2023-02-26T21:04:50.991Z,7.17
2023-02-26T21:07:21.956Z,7.17
2023-02-26T21:09:52.039Z,7.60
2023-02-26T21:12:20.720Z,8.10
2023-02-26T21:14:51.207Z,7.90
2023-02-26T21:17:19.335Z,6.13
2023-02-26T21:19:47.515Z,6.97
2023-02-26T21:22:17.251Z,6.47
2023-02-26T21:24:45.357Z,6.80
2023-02-26T21:27:13.948Z,6.67
2023-02-26T21:29:41.988Z,7.10
2023-02-26T21:32:10.577Z,5.73
2023-02-26T21:34:38.688Z,5.53
2023-02-26T21:37:09.356Z,6.00
2023-02-26T21:39:39.725Z,6.70
2023-02-26T21:42:09.692Z,6.97
2023-02-26T21:44:37.791Z,6.83
2023-02-26T21:47:06.029Z,6.30
2023-02-26T21:49:34.074Z,6.83
2023-02-26T21:52:04.253Z,7.33
2023-02-26T21:54:32.647Z,6.10
2023-02-26T21:57:03.103Z,6.30
2023-02-26T21:59:31.218Z,7.23
2023-02-26T22:01:59.356Z,5.43
2023-02-26T22:04:27.730Z,6.47
2023-02-26T22:06:55.748Z,5.70
2023-02-26T22:09:24.040Z,5.93
2023-02-26T22:11:52.073Z,4.80
2023-02-26T22:14:21.493Z,4.40
2023-02-26T22:16:49.662Z,4.80
2023-02-26T22:19:17.743Z,5.07
2023-02-26T22:21:45.794Z,4.80
2023-02-26T22:24:13.930Z,5.10
2023-02-26T22:26:42.699Z,4.50
2023-02-26T22:29:10.753Z,5.07
2023-02-26T22:31:40.159Z,5.37
2023-02-26T22:34:08.348Z,4.97
2023-02-26T22:36:36.376Z,5.40
2023-02-26T22:39:06.316Z,5.13
2023-02-26T22:41:34.612Z,4.87
2023-02-26T22:44:02.858Z,5.27
2023-02-26T22:46:32.212Z,6.10
2023-02-26T22:49:01.652Z,5.97
2023-02-26T22:51:29.943Z,5.83
2023-02-26T22:53:58.076Z,5.27
2023-02-26T22:56:26.239Z,6.17
2023-02-26T22:58:54.838Z,5.83
2023-02-26T23:01:22.912Z,5.53
2023-02-26T23:03:51.012Z,5.23
2023-02-26T23:06:20.494Z,5.23
2023-02-26T23:08:48.782Z,5.33
2023-02-26T23:11:16.962Z,5.90
2023-02-26T23:13:44.984Z,5.67
2023-02-26T23:16:13.744Z,3.87
2023-02-26T23:18:45.423Z,4.77
2023-02-26T23:21:13.543Z,6.10
2023-02-26T23:23:43.890Z,4.10
2023-02-26T23:26:12.146Z,5.60
2023-02-26T23:28:40.201Z,4.67
2023-02-26T23:31:08.588Z,5.73
2023-02-26T23:33:36.663Z,4.70
2023-02-26T23:36:05.113Z,5.03
2023-02-26T23:38:33.161Z,5.00
2023-02-26T23:41:02.590Z,5.83
2023-02-26T23:43:30.612Z,5.40
2023-02-26T23:45:58.813Z,4.87
2023-02-26T23:48:27.454Z,4.07
2023-02-26T23:50:55.941Z,4.23
2023-02-26T23:53:24.270Z,4.60
2023-02-26T23:55:57.130Z,5.17
2023-02-26T23:58:27.173Z,4.90
